Time;durP1;ratioP1;P1;durP2;ratioP2;P2;SDS_P1;SDS_P2;PMS_P1;PMS_P2;Temp;Humidity;BMP_temperature;BMP_pressure;BME280_temperature;BME280_humidity;BME280_pressure;Samples;Min_cycle;Max_cycle;Signal;HPM_P1;HPM_P2
2021/01/21 00:00:40;;;;;;;27.50;14.87;;;;;;;0.21;86.54;98132.84;1704469;83;21201;-64
2021/01/21 00:03:09;;;;;;;24.20;13.90;;;;;;;0.24;86.52;98132.69;1663413;86;21236;-63
2021/01/21 00:05:37;;;;;;;24.02;13.50;;;;;;;0.25;86.44;98134.80;1663517;86;21569;-64
2021/01/21 00:08:07;;;;;;;30.80;15.08;;;;;;;0.25;86.42;98145.02;1663430;86;21163;-64
2021/01/21 00:10:34;;;;;;;22.42;11.88;;;;;;;0.23;86.40;98135.34;1663639;86;21184;-64
2021/01/21 00:13:03;;;;;;;15.88;10.50;;;;;;;0.22;86.52;98137.06;1663502;86;21199;-64
2021/01/21 00:15:31;;;;;;;31.15;13.60;;;;;;;0.23;86.54;98138.72;1663537;86;21180;-64
2021/01/21 00:18:00;;;;;;;30.37;14.10;;;;;;;0.23;86.51;98140.00;1663261;86;21148;-64
2021/01/21 00:20:28;;;;;;;26.33;12.85;;;;;;;0.24;86.58;98130.58;1663402;86;21167;-64
2021/01/21 00:22:57;;;;;;;30.88;15.68;;;;;;;0.27;86.46;98134.28;1663389;86;21608;-64
2021/01/21 00:25:25;;;;;;;28.85;12.98;;;;;;;0.31;86.40;98135.31;1663258;86;21159;-64
2021/01/21 00:27:53;;;;;;;33.08;15.05;;;;;;;0.29;86.33;98135.85;1663559;86;21750;-64
2021/01/21 00:30:23;;;;;;;28.52;14.47;;;;;;;0.28;86.22;98123.97;1663451;86;21168;-64
2021/01/21 00:32:51;;;;;;;25.68;12.93;;;;;;;0.35;86.19;98130.91;1663646;86;21194;-65
2021/01/21 00:35:20;;;;;;;27.75;14.23;;;;;;;0.41;86.09;98130.59;1663750;86;21159;-64
2021/01/21 00:37:48;;;;;;;37.58;15.90;;;;;;;0.40;86.15;98133.59;1663477;86;21593;-64
2021/01/21 00:40:17;;;;;;;26.10;12.88;;;;;;;0.36;86.09;98135.09;1663548;86;21124;-64
2021/01/21 00:42:45;;;;;;;24.63;13.80;;;;;;;0.40;86.03;98140.42;1663341;86;22394;-65
2021/01/21 00:45:15;;;;;;;20.23;13.75;;;;;;;0.45;85.94;98144.87;1647322;86;21231;-62
2021/01/21 00:47:43;;;;;;;26.62;15.80;;;;;;;0.40;85.66;98137.42;1659861;86;21236;-62
2021/01/21 00:50:13;;;;;;;25.97;12.18;;;;;;;0.31;86.00;98134.52;1659890;86;21235;-63
2021/01/21 00:52:41;;;;;;;30.70;14.73;;;;;;;0.35;85.80;98139.37;1639529;87;21612;-64
2021/01/21 00:55:14;;;;;;;38.85;20.35;;;;;;;0.27;86.06;98131.73;1639730;87;21222;-63
2021/01/21 00:57:42;;;;;;;29.82;15.53;;;;;;;0.11;87.26;98134.20;1639549;87;21191;-62
2021/01/21 01:00:12;;;;;;;33.08;15.00;;;;;;;0.10;87.45;98126.60;1639608;87;21207;-64
2021/01/21 01:02:42;;;;;;;22.55;13.18;;;;;;;-0.01;88.24;98125.41;1638314;87;21203;-63
2021/01/21 01:05:18;;;;;;;23.98;14.18;;;;;;;0.05;88.29;98110.23;1650566;87;21210;-64
2021/01/21 01:07:47;;;;;;;;;;;;;;;0.08;88.17;98111.83;1652965;87;21280;-62
2021/01/21 01:10:17;;;;;;;32.50;13.88;;;;;;;0.10;88.27;98110.84;1650679;87;20274;-64
2021/01/21 01:12:45;;;;;;;22.67;12.70;;;;;;;0.10;88.27;98110.84;1650801;87;21215;-67
2021/01/21 01:15:15;;;;;;;18.82;11.65;;;;;;;0.13;87.90;98111.95;1650624;87;21347;-68
2021/01/21 01:17:43;;;;;;;26.65;14.95;;;;;;;0.17;87.72;98101.97;1650509;87;21580;-65
2021/01/21 01:20:13;;;;;;;25.40;14.15;;;;;;;0.13;88.25;98091.53;1650650;87;21194;-64
2021/01/21 01:22:42;;;;;;;25.20;14.18;;;;;;;0.15;88.06;98091.47;1629720;87;21199;-62
2021/01/21 01:25:13;;;;;;;16.80;13.08;;;;;;;0.14;88.25;98090.64;1651085;87;21186;-63
2021/01/21 01:27:42;;;;;;;32.93;13.05;;;;;;;0.22;87.92;98093.64;1625472;88;21230;-65
2021/01/21 01:30:12;;;;;;;31.27;14.87;;;;;;;0.31;87.83;98095.72;1646179;87;21814;-73
2021/01/21 01:32:40;;;;;;;26.37;14.05;;;;;;;0.40;87.57;98098.27;1646202;87;21250;-66
2021/01/21 01:35:10;;;;;;;25.35;13.75;;;;;;;0.45;87.26;98090.77;1646459;87;21230;-65
2021/01/21 01:37:39;;;;;;;31.60;13.30;;;;;;;0.41;86.52;98097.38;1646315;87;21202;-68
2021/01/21 01:40:13;;;;;;;20.70;11.20;;;;;;;0.48;86.74;98098.72;1639023;87;21611;-65
2021/01/21 01:42:47;;;;;;;31.42;15.32;;;;;;;0.56;86.63;98099.60;1639149;87;21223;-65
2021/01/21 01:45:17;;;;;;;34.27;15.70;;;;;;;0.62;86.62;98091.64;1639200;87;21211;-65
2021/01/21 01:47:47;;;;;;;31.52;14.20;;;;;;;0.66;86.43;98087.55;1639135;87;21203;-65
2021/01/21 01:50:34;;;;;;;30.88;15.03;;;;;;;0.69;86.30;98085.31;1638841;87;21156;-65
2021/01/21 01:53:06;;;;;;;32.05;14.23;;;;;;;0.68;85.59;98081.09;1638818;87;21148;-68
2021/01/21 01:55:35;;;;;;;22.58;13.28;;;;;;;0.60;85.48;98087.05;1639207;87;21715;-65
2021/01/21 01:58:13;;;;;;;;;;;;;;;0.57;85.69;98083.38;1639415;87;21664;-65
2021/01/21 02:00:44;;;;;;;26.93;12.55;;;;;;;0.53;85.86;98080.16;1639069;87;20199;-65
2021/01/21 02:03:13;;;;;;;22.98;14.93;;;;;;;0.51;85.95;98073.48;1633270;87;21204;-65
2021/01/21 02:05:43;;;;;;;22.77;13.93;;;;;;;0.40;85.79;98070.17;1630666;88;21149;-62
2021/01/21 02:08:11;;;;;;;27.93;13.00;;;;;;;0.15;85.90;98073.14;1632217;87;21172;-65
2021/01/21 02:10:40;;;;;;;31.42;16.15;;;;;;;0.15;85.90;98073.14;1632396;87;21199;-63
2021/01/21 02:13:21;;;;;;;28.87;17.00;;;;;;;0.08;86.68;98074.32;1631489;88;21860;-62
2021/01/21 02:16:17;;;;;;;25.80;13.32;;;;;;;-0.04;87.20;98066.81;1632543;87;21191;-64
2021/01/21 02:19:20;;;;;;;21.70;12.37;;;;;;;-0.14;87.41;98062.23;1632930;87;21187;-63
2021/01/21 02:22:23;;;;;;;30.02;14.75;;;;;;;-0.20;87.11;98052.34;1608234;88;21581;-62
2021/01/21 02:25:08;;;;;;;32.73;15.93;;;;;;;-0.20;87.11;98052.34;1673955;85;21194;-62
2021/01/21 02:28:18;;;;;;;27.45;15.08;;;;;;;-0.14;86.54;98054.58;1674090;86;21290;-67
2021/01/21 02:31:00;;;;;;;25.97;15.90;;;;;;;-0.14;86.54;98054.58;1674054;85;21171;-65
2021/01/21 02:33:55;;;;;;;28.73;14.65;;;;;;;-0.19;86.51;98047.14;1673592;86;21588;-65
2021/01/21 02:36:30;;;;;;;32.73;16.48;;;;;;;-0.26;86.57;98052.62;1674090;86;21615;-62
2021/01/21 02:39:03;;;;;;;23.55;13.65;;;;;;;-0.29;86.64;98054.05;1674288;85;21584;-63
2021/01/21 02:41:35;;;;;;;25.92;13.43;;;;;;;-0.25;86.79;98059.38;1674243;85;21133;-65
2021/01/21 02:44:04;;;;;;;27.17;15.68;;;;;;;-0.19;86.86;98060.35;1648902;86;21199;-66
2021/01/21 02:46:32;;;;;;;23.65;13.15;;;;;;;-0.14;86.95;98039.27;1649063;86;21608;-63
2021/01/21 02:49:03;;;;;;;33.13;15.53;;;;;;;-0.14;86.95;98039.27;1673997;84;21187;-63
2021/01/21 02:51:48;;;;;;;27.98;14.73;;;;;;;-0.24;86.60;98035.08;1673901;85;21234;-63
2021/01/21 02:54:58;;;;;;;32.30;15.68;;;;;;;-0.24;86.60;98035.08;1673994;85;21178;-65
2021/01/21 02:57:58;;;;;;;29.90;15.80;;;;;;;-0.22;86.73;98044.75;1673941;85;21168;-67
2021/01/21 03:00:28;;;;;;;29.63;16.23;;;;;;;-0.21;86.81;98051.95;1674203;86;21657;-67
2021/01/21 03:02:59;;;;;;;37.95;14.78;;;;;;;-0.17;86.93;98041.98;1630456;86;21646;-62
2021/01/21 03:05:31;;;;;;;27.87;15.28;;;;;;;-0.17;86.93;98041.98;1639726;87;21210;-65
2021/01/21 03:08:01;;;;;;;37.38;15.38;;;;;;;-0.10;86.91;98049.27;1639509;86;21143;-65
2021/01/21 03:10:29;;;;;;;27.52;14.98;;;;;;;-0.12;86.99;98045.94;1639622;87;21225;-64
2021/01/21 03:12:58;;;;;;;27.35;13.43;;;;;;;-0.14;86.53;98052.03;1639419;86;21226;-65
2021/01/21 03:15:29;;;;;;;32.95;15.60;;;;;;;-0.14;86.53;98052.03;1638546;87;21174;-67
2021/01/21 03:17:59;;;;;;;30.40;16.07;;;;;;;-0.11;86.58;98045.05;1645980;87;21190;-67
2021/01/21 03:20:29;;;;;;;27.37;13.48;;;;;;;-0.08;86.52;98047.92;1621619;87;21188;-67
2021/01/21 03:22:58;;;;;;;25.20;14.83;;;;;;;-0.06;86.59;98044.38;1621741;87;21182;-67
2021/01/21 03:25:26;;;;;;;37.88;17.77;;;;;;;-0.18;86.93;98060.29;1621610;88;21186;-67
2021/01/21 03:28:02;;;;;;;41.98;17.92;;;;;;;-0.13;86.64;98055.80;1737586;81;21182;-67
2021/01/21 03:30:33;;;;;;;21.25;16.20;;;;;;;-0.15;86.58;98038.88;1747013;82;21557;-67
2021/01/21 03:33:02;;;;;;;30.97;16.27;;;;;;;-0.16;86.54;98047.02;1747187;82;21236;-67
2021/01/21 03:35:32;;;;;;;27.50;16.00;;;;;;;-0.12;86.67;98040.84;1746346;82;21628;-67
2021/01/21 03:38:01;;;;;;;28.00;14.07;;;;;;;-0.10;86.58;98047.98;1747033;82;21125;-67
2021/01/21 03:40:31;;;;;;;27.85;15.35;;;;;;;-0.12;86.69;98050.25;1721743;82;21155;-67
2021/01/21 03:43:00;;;;;;;31.90;15.50;;;;;;;-0.10;86.80;98042.05;1747172;82;21153;-67
2021/01/21 03:45:29;;;;;;;30.92;14.83;;;;;;;-0.07;86.76;98037.61;1735818;81;21152;-66
2021/01/21 03:47:59;;;;;;;31.48;14.83;;;;;;;-0.04;86.73;98027.25;1746541;82;21148;-67
2021/01/21 03:50:28;;;;;;;34.27;16.32;;;;;;;-0.01;86.62;98027.12;1722006;82;21152;-67
2021/01/21 03:52:57;;;;;;;25.90;14.75;;;;;;;0.00;86.56;98024.12;1747450;82;21231;-66
2021/01/21 03:55:27;;;;;;;28.42;17.35;;;;;;;-0.10;86.29;98021.18;1746511;82;21216;-66
2021/01/21 03:58:00;;;;;;;27.50;15.93;;;;;;;-0.12;86.21;98023.45;1746745;82;21179;-62
2021/01/21 04:00:30;;;;;;;34.15;16.80;;;;;;;-0.11;86.63;98013.59;1746329;82;21133;-64
2021/01/21 04:03:00;;;;;;;29.82;14.68;;;;;;;-0.25;86.43;98001.52;1747358;82;21473;-62
2021/01/21 04:05:33;;;;;;;36.68;18.32;;;;;;;-0.25;86.43;98001.52;1739283;81;21148;-64
2021/01/21 04:08:02;;;;;;;32.67;16.65;;;;;;;-0.20;86.67;98018.72;1746935;82;21152;-61
2021/01/21 04:10:35;;;;;;;21.97;13.80;;;;;;;-0.30;86.72;98014.95;1746581;82;21593;-64
2021/01/21 04:13:11;;;;;;;28.45;14.65;;;;;;;-0.29;86.86;98020.88;1745911;82;21133;-64
2021/01/21 04:15:39;;;;;;;23.20;14.40;;;;;;;-0.26;86.93;98017.73;1747046;82;21156;-64
2021/01/21 04:18:09;;;;;;;20.10;13.13;;;;;;;-0.19;86.68;98025.90;1747415;82;21152;-67
2021/01/21 04:20:58;;;;;;;21.77;14.95;;;;;;;-0.22;86.47;98014.57;1747140;82;21578;-67
2021/01/21 04:23:27;;;;;;;18.25;12.65;;;;;;;-0.23;86.23;98014.19;1747367;82;21235;-67
2021/01/21 04:25:55;;;;;;;27.25;15.68;;;;;;;-0.33;86.10;98013.83;1747317;82;21184;-66
2021/01/21 04:28:24;;;;;;;28.32;16.05;;;;;;;-0.40;86.31;98021.85;1752912;81;21200;-66
2021/01/21 04:30:53;;;;;;;25.43;12.80;;;;;;;-0.62;87.47;98024.58;1764920;80;21205;-66
2021/01/21 04:33:21;;;;;;;19.52;10.60;;;;;;;-0.60;87.48;98031.73;1764969;80;21151;-66
2021/01/21 04:35:50;;;;;;;23.67;11.97;;;;;;;-0.58;87.23;98025.64;1764896;80;21320;-66
2021/01/21 04:38:19;;;;;;;22.35;12.90;;;;;;;-0.67;87.47;98024.82;1764803;80;21159;-66
2021/01/21 04:40:55;;;;;;;18.02;12.07;;;;;;;-0.62;87.21;98025.85;1766543;80;21167;-66
2021/01/21 04:43:40;;;;;;;27.15;14.70;;;;;;;-0.54;87.37;98027.59;1751839;81;21245;-67
2021/01/21 04:46:11;;;;;;;43.90;23.12;;;;;;;-0.53;86.49;98026.70;1764621;80;21231;-67
2021/01/21 04:48:43;;;;;;;27.22;16.82;;;;;;;-0.47;86.42;98033.25;1764209;80;21682;-66
2021/01/21 04:51:14;;;;;;;37.65;21.60;;;;;;;-0.47;86.42;98033.25;1766671;79;21110;-66
2021/01/21 04:53:52;;;;;;;28.35;17.23;;;;;;;-0.39;86.48;98035.83;1766712;80;21131;-68
2021/01/21 04:56:30;;;;;;;23.83;13.40;;;;;;;-0.33;86.39;98034.69;1764651;80;21119;-66
2021/01/21 04:59:04;;;;;;;20.20;12.47;;;;;;;-0.30;86.10;98039.19;1745636;80;21234;-64
2021/01/21 05:01:34;;;;;;;24.05;14.38;;;;;;;-0.14;86.11;98040.09;1765404;80;21187;-63
2021/01/21 05:04:05;;;;;;;26.48;14.15;;;;;;;-0.14;86.11;98031.16;1766754;80;21119;-64
2021/01/21 05:06:51;;;;;;;29.15;16.25;;;;;;;-0.08;85.66;98040.27;1752876;81;21168;-64
2021/01/21 05:09:20;;;;;;;30.88;17.77;;;;;;;-0.02;85.85;98036.95;1709801;83;21174;-64
2021/01/21 05:11:50;;;;;;;39.00;18.60;;;;;;;0.01;85.58;98030.85;1752837;81;21147;-64
2021/01/21 05:14:29;;;;;;;37.00;18.00;;;;;;;0.04;85.22;98033.73;1734659;81;21170;-63
2021/01/21 05:17:07;;;;;;;34.23;16.25;;;;;;;-0.01;84.79;98035.22;1752981;81;21163;-64
2021/01/21 05:19:52;;;;;;;24.98;14.93;;;;;;;-0.09;84.49;98030.95;1734920;81;21158;-64
2021/01/21 05:22:44;;;;;;;37.75;19.75;;;;;;;-0.11;84.74;98027.63;1692428;84;21205;-64
2021/01/21 05:25:26;;;;;;;26.93;14.58;;;;;;;-0.13;84.95;98029.44;1696297;84;21180;-64
2021/01/21 05:28:06;;;;;;;24.75;15.60;;;;;;;-0.14;85.07;98026.51;1695347;84;21160;-64
2021/01/21 05:30:53;;;;;;;24.77;13.85;;;;;;;-0.20;85.20;98025.09;1695540;84;21173;-63
2021/01/21 05:33:24;;;;;;;24.55;13.53;;;;;;;-0.23;85.44;98026.95;1715693;83;21159;-66
2021/01/21 05:35:57;;;;;;;23.65;13.80;;;;;;;-0.26;85.77;98029.20;1699334;84;21568;-66
2021/01/21 05:38:30;;;;;;;25.62;14.18;;;;;;;-0.27;85.81;98031.85;1706456;84;21207;-67
2021/01/21 05:41:17;;;;;;;33.78;15.25;;;;;;;-0.35;86.11;98026.30;1706371;84;21159;-67
2021/01/21 05:43:53;;;;;;;20.05;12.85;;;;;;;-0.31;86.35;98032.90;1704653;84;21156;-68
2021/01/21 05:46:26;;;;;;;28.60;13.58;;;;;;;-0.27;86.22;98035.20;1705557;84;21143;-64
2021/01/21 05:48:55;;;;;;;16.87;10.30;;;;;;;-0.24;86.06;98035.08;1706366;84;21619;-64
2021/01/21 05:51:25;;;;;;;25.80;12.90;;;;;;;-0.27;85.92;98035.20;1706282;84;21614;-65
2021/01/21 05:53:56;;;;;;;20.50;9.85;;;;;;;-0.33;86.14;98031.69;1706174;84;21108;-64
2021/01/21 05:56:33;;;;;;;13.95;9.53;;;;;;;-0.29;85.97;98028.09;1715629;83;21156;-64
2021/01/21 05:59:04;;;;;;;19.90;10.43;;;;;;;-0.31;86.21;98029.07;1668728;85;21193;-63
2021/01/21 06:01:34;;;;;;;15.32;9.35;;;;;;;-0.29;86.34;98037.47;1694714;84;21167;-64
2021/01/21 06:04:04;;;;;;;24.43;11.75;;;;;;;-0.32;86.47;98033.34;1696761;83;21144;-64
2021/01/21 06:06:39;;;;;;;18.27;10.40;;;;;;;-0.34;86.85;98039.41;1686752;85;21164;-64
2021/01/21 06:09:15;;;;;;;14.85;9.63;;;;;;;-0.34;87.06;98033.02;1677953;84;21179;-64
2021/01/21 06:11:43;;;;;;;20.77;9.43;;;;;;;-0.32;87.02;98038.89;1702178;83;21248;-64
2021/01/21 06:14:12;;;;;;;15.28;10.28;;;;;;;-0.32;87.14;98038.45;1693713;84;21252;-64
2021/01/21 06:16:41;;;;;;;20.80;11.65;;;;;;;-0.33;87.48;98045.72;1686388;85;21159;-64
2021/01/21 06:19:10;;;;;;;23.27;11.40;;;;;;;-0.30;87.40;98043.46;1663863;86;21211;-64
2021/01/21 06:21:45;;;;;;;28.35;14.40;;;;;;;-0.27;87.35;98036.48;1679891;84;21159;-65
2021/01/21 06:24:19;;;;;;;22.77;12.98;;;;;;;-0.24;87.06;98043.18;1691922;84;21193;-65
2021/01/21 06:26:54;;;;;;;24.30;13.40;;;;;;;-0.22;87.45;98041.37;1708009;82;21175;-65
2021/01/21 06:29:27;;;;;;;22.95;13.80;;;;;;;-0.22;87.45;98041.37;1729882;82;21166;-65
2021/01/21 06:32:00;;;;;;;26.85;14.53;;;;;;;-0.20;87.38;98037.86;1734138;82;21186;-64
2021/01/21 06:34:32;;;;;;;22.85;12.37;;;;;;;-0.16;87.36;98044.47;1716098;83;21155;-65
2021/01/21 06:37:07;;;;;;;28.17;15.25;;;;;;;-0.15;87.45;98046.09;1711711;83;21150;-64
2021/01/21 06:39:46;;;;;;;24.10;13.18;;;;;;;-0.11;87.27;98035.28;1728205;82;21176;-64
2021/01/21 06:42:21;;;;;;;21.17;13.72;;;;;;;-0.01;87.22;98039.88;1720284;82;21187;-65
2021/01/21 06:44:52;;;;;;;20.23;11.78;;;;;;;0.03;86.87;98043.55;1744223;82;21628;-65
2021/01/21 06:47:21;;;;;;;24.02;14.50;;;;;;;0.11;86.83;98049.94;1749363;82;21169;-65
2021/01/21 06:49:56;;;;;;;29.10;16.62;;;;;;;0.15;86.68;98045.05;1718091;83;21172;-65
2021/01/21 06:52:49;;;;;;;27.13;14.70;;;;;;;0.15;86.77;98047.61;1740652;81;21197;-65
2021/01/21 06:55:18;;;;;;;31.12;16.93;;;;;;;0.18;86.72;98053.00;1694364;84;21134;-65
2021/01/21 06:57:46;;;;;;;29.52;17.60;;;;;;;0.19;86.68;98045.73;1694497;84;21181;-68
2021/01/21 07:00:17;;;;;;;41.80;15.63;;;;;;;0.18;87.13;98040.23;1694627;85;21157;-67
2021/01/21 07:02:49;;;;;;;27.60;17.42;;;;;;;0.05;87.25;98037.46;1649673;86;21191;-67
2021/01/21 07:05:23;;;;;;;38.48;18.25;;;;;;;0.14;87.37;98048.95;1662237;86;21384;-67
2021/01/21 07:08:00;;;;;;;34.20;18.57;;;;;;;0.13;87.43;98056.23;1649402;86;21564;-68
2021/01/21 07:10:47;;;;;;;29.10;18.10;;;;;;;0.11;87.52;98049.11;1621635;88;21719;-67
2021/01/21 07:13:19;;;;;;;25.40;16.02;;;;;;;0.23;87.74;98056.99;1636884;87;21187;-64
2021/01/21 07:15:51;;;;;;;30.68;15.93;;;;;;;0.30;87.48;98063.44;1621977;88;21274;-64
2021/01/21 07:18:23;;;;;;;29.70;15.25;;;;;;;0.39;87.47;98053.19;1649660;86;21175;-65
2021/01/21 07:21:11;;;;;;;26.87;16.40;;;;;;;0.42;86.98;98060.72;1622227;88;21202;-66
2021/01/21 07:23:49;;;;;;;19.57;12.03;;;;;;;0.51;87.20;98054.32;1649820;87;21175;-66
2021/01/21 07:26:36;;;;;;;29.50;17.12;;;;;;;0.52;87.22;98050.84;1649729;86;21191;-65
2021/01/21 07:29:16;;;;;;;26.93;13.55;;;;;;;0.54;87.34;98050.33;1623255;87;21220;-66
2021/01/21 07:31:59;;;;;;;22.42;11.43;;;;;;;0.60;87.46;98051.27;1622065;88;21251;-66
2021/01/21 07:34:39;;;;;;;18.60;10.88;;;;;;;0.63;87.26;98048.55;1621834;88;21325;-66
2021/01/21 07:37:53;;;;;;;29.27;11.45;;;;;;;0.65;87.21;98048.03;1621543;88;21223;-67
2021/01/21 07:43:49;;;;;;;29.18;11.80;;;;;;;0.83;90.45;98051.73;1697131;84;21407;-66
2021/01/21 07:46:25;;;;;;;20.82;10.65;;;;;;;0.73;87.41;98048.47;1698212;84;21228;-67
2021/01/21 07:52:09;;;;;;;28.98;13.88;;;;;;;1.09;88.09;98049.06;1673550;85;21217;-67
2021/01/21 07:54:48;;;;;;;15.98;10.80;;;;;;;1.03;86.31;98051.95;1629721;88;21194;-68
2021/01/21 07:57:23;;;;;;;23.92;13.43;;;;;;;0.93;86.28;98045.69;1679798;84;21184;-67
2021/01/21 08:02:50;;;;;;;27.17;15.98;;;;;;;1.03;86.38;98055.80;1708965;82;21213;-66
2021/01/21 08:05:23;;;;;;;22.55;10.93;;;;;;;1.05;86.28;98057.00;1685745;84;21194;-66
2021/01/21 08:08:16;;;;;;;27.02;13.32;;;;;;;1.18;86.08;98049.02;1685634;84;21273;-66
2021/01/21 08:10:45;;;;;;;32.08;13.28;;;;;;;1.38;85.36;98044.94;1715685;82;21622;-66
2021/01/21 08:13:16;;;;;;;22.62;10.72;;;;;;;1.66;85.15;98040.40;1758708;81;21164;-66
2021/01/21 08:15:46;;;;;;;26.52;13.43;;;;;;;1.98;85.02;98041.98;1758818;81;21232;-66
2021/01/21 08:18:18;;;;;;;22.85;11.60;;;;;;;2.24;82.96;98037.89;1758570;81;21169;-66
2021/01/21 08:20:48;;;;;;;24.43;12.13;;;;;;;2.31;81.50;98028.48;1758776;81;21161;-65
2021/01/21 08:23:16;;;;;;;36.90;16.62;;;;;;;2.43;81.91;98036.36;1712881;83;21176;-65
2021/01/21 08:25:55;;;;;;;40.52;13.35;;;;;;;2.38;80.63;98033.61;1755261;81;21158;-65
2021/01/21 08:28:25;;;;;;;30.23;15.83;;;;;;;2.48;80.37;98033.90;1755208;81;21168;-65
2021/01/21 08:30:54;;;;;;;32.75;15.40;;;;;;;2.50;80.08;98033.34;1755334;81;21177;-65
2021/01/21 08:33:28;;;;;;;32.28;15.58;;;;;;;2.55;79.62;98037.74;1755284;81;21188;-65
2021/01/21 08:36:04;;;;;;;33.67;16.70;;;;;;;2.53;79.46;98034.43;1755309;81;21224;-65
2021/01/21 08:38:39;;;;;;;34.85;18.27;;;;;;;2.50;80.54;98032.05;1755347;81;21173;-64
2021/01/21 08:41:14;;;;;;;36.42;16.07;;;;;;;2.59;79.90;98026.39;1755135;81;21189;-65
2021/01/21 08:43:44;;;;;;;27.42;15.85;;;;;;;2.72;79.96;98029.84;1755337;81;21149;-65
2021/01/21 08:46:21;;;;;;;33.15;16.62;;;;;;;2.75;78.39;98030.14;1755536;81;21260;-65
2021/01/21 08:48:51;;;;;;;34.48;15.45;;;;;;;2.84;78.47;98025.75;1755258;81;21188;-65
2021/01/21 08:51:37;;;;;;;38.40;16.75;;;;;;;3.01;79.17;98031.94;1755214;81;21596;-65
2021/01/21 08:54:25;;;;;;;34.97;15.70;;;;;;;3.03;77.30;98032.68;1755240;81;21145;-65
2021/01/21 08:57:14;;;;;;;34.25;17.12;;;;;;;3.22;78.29;98031.91;1755462;82;21536;-66
2021/01/21 08:59:43;;;;;;;30.00;16.37;;;;;;;3.38;78.21;98029.20;1755596;82;21641;-65
2021/01/21 09:02:13;;;;;;;38.02;18.17;;;;;;;3.47;76.51;98023.47;1755503;81;21171;-65
2021/01/21 09:04:41;;;;;;;39.00;18.52;;;;;;;3.40;75.79;98029.91;1755356;82;21184;-65
2021/01/21 09:07:10;;;;;;;36.83;17.17;;;;;;;3.49;76.00;98027.23;1754946;81;21163;-67
2021/01/21 09:09:42;;;;;;;28.12;17.73;;;;;;;3.35;75.65;98030.66;1743758;80;21621;-67
2021/01/21 09:12:19;;;;;;;33.00;18.10;;;;;;;2.96;77.14;98025.45;1684928;84;21789;-67
2021/01/21 09:15:07;;;;;;;27.13;15.23;;;;;;;3.30;76.97;98025.83;1738971;82;21248;-66
2021/01/21 09:17:37;;;;;;;25.72;14.68;;;;;;;3.69;76.25;98012.66;1716287;82;21173;-66
2021/01/21 09:20:26;;;;;;;24.37;13.43;;;;;;;4.22;75.57;98011.25;1739174;82;21820;-65
2021/01/21 09:22:56;;;;;;;24.80;13.60;;;;;;;4.50;72.39;97999.94;1739225;82;21329;-65
2021/01/21 09:25:27;;;;;;;22.80;13.38;;;;;;;4.40;72.01;98005.33;1739066;82;21387;-65
2021/01/21 09:27:56;;;;;;;22.02;12.63;;;;;;;4.71;72.22;97994.60;1738901;82;21197;-66
2021/01/21 09:30:25;;;;;;;29.20;16.42;;;;;;;4.79;71.34;97995.36;1738859;82;21204;-66
2021/01/21 09:32:53;;;;;;;32.10;17.07;;;;;;;4.40;71.88;98005.81;1738791;82;21343;-65
2021/01/21 09:35:23;;;;;;;29.98;15.98;;;;;;;4.78;71.33;97996.30;1685292;84;21240;-65
2021/01/21 09:37:58;;;;;;;29.77;13.13;;;;;;;4.86;70.62;97991.45;1715591;81;21234;-65
2021/01/21 09:43:12;;;;;;;23.55;13.70;;;;;;;5.54;69.40;97988.30;1684126;84;21235;-65
2021/01/21 09:48:23;;;;;;;27.42;14.30;;;;;;;5.09;68.94;97982.13;1729409;82;21175;-65
2021/01/21 09:50:55;;;;;;;28.23;15.30;;;;;;;5.25;68.83;97976.25;1730926;82;21183;-65
2021/01/21 09:53:23;;;;;;;27.13;14.87;;;;;;;5.59;68.10;97971.59;1730737;82;21249;-65
2021/01/21 09:55:55;;;;;;;26.60;14.43;;;;;;;5.53;68.55;97978.47;1729269;81;21153;-65
2021/01/21 09:58:24;;;;;;;23.47;13.75;;;;;;;5.96;67.46;97974.06;1725039;82;21586;-69
2021/01/21 10:00:53;;;;;;;26.70;13.80;;;;;;;6.35;66.92;97974.13;1725040;82;21213;-68
2021/01/21 10:03:21;;;;;;;35.98;14.28;;;;;;;6.55;65.14;97966.98;1727572;82;21277;-68
2021/01/21 10:06:11;;;;;;;29.25;13.20;;;;;;;6.80;65.69;97972.38;1729159;83;21151;-66
2021/01/21 10:08:40;;;;;;;30.30;15.78;;;;;;;7.48;62.57;97963.88;1709874;82;21616;-74
2021/01/21 10:11:08;;;;;;;27.65;13.40;;;;;;;7.14;62.19;97954.12;1709902;82;21172;-68
2021/01/21 10:13:36;;;;;;;27.45;15.60;;;;;;;7.50;62.14;97954.72;1709795;82;21173;-67
2021/01/21 10:16:05;;;;;;;25.32;12.18;;;;;;;6.52;63.25;97962.07;1709492;82;21205;-66
2021/01/21 10:18:33;;;;;;;25.80;14.30;;;;;;;7.13;62.31;97965.39;1714099;82;21207;-66
2021/01/21 10:21:01;;;;;;;25.10;13.78;;;;;;;6.94;62.62;97961.79;1738702;82;21239;-66
2021/01/21 10:26:13;;;;;;;26.62;13.20;;;;;;;6.85;63.50;97966.41;1741022;81;21445;-66
2021/01/21 10:28:41;;;;;;;23.85;12.43;;;;;;;6.75;63.95;97957.71;1752927;81;21156;-66
2021/01/21 10:31:10;;;;;;;19.20;11.83;;;;;;;7.02;63.45;97951.22;1763109;81;21158;-66
2021/01/21 10:33:38;;;;;;;31.17;15.78;;;;;;;7.19;62.94;97943.91;1762702;81;21589;-67
2021/01/21 10:36:08;;;;;;;22.55;12.35;;;;;;;6.98;64.19;97949.81;1762630;81;21215;-66
2021/01/21 10:38:39;;;;;;;20.77;12.10;;;;;;;7.01;62.41;97943.12;1762595;81;21625;-66
2021/01/21 10:41:11;;;;;;;22.55;12.60;;;;;;;7.43;62.56;97940.16;1762664;81;21474;-68
2021/01/21 10:43:41;;;;;;;23.95;14.13;;;;;;;7.28;62.42;97932.35;1762681;81;21192;-69
2021/01/21 10:46:09;;;;;;;22.10;11.08;;;;;;;7.41;62.70;97921.39;1762763;81;21216;-68
2021/01/21 10:48:38;;;;;;;19.98;10.58;;;;;;;7.68;61.11;97906.70;1757365;81;21234;-65
2021/01/21 10:51:06;;;;;;;20.52;11.83;;;;;;;7.70;60.96;97922.91;1741887;81;21285;-66
2021/01/21 10:53:34;;;;;;;22.60;10.72;;;;;;;7.66;61.61;97908.60;1747028;81;21188;-65
2021/01/21 10:58:43;;;;;;;19.07;10.50;;;;;;;7.99;60.52;97907.56;1698042;84;21166;-69
2021/01/21 11:01:11;;;;;;;18.48;10.65;;;;;;;7.60;60.28;97904.73;1698085;84;21250;-69
2021/01/21 11:03:39;;;;;;;20.37;10.85;;;;;;;7.64;60.65;97894.97;1693812;84;21188;-73
2021/01/21 11:06:10;;;;;;;20.20;12.37;;;;;;;7.70;61.76;97884.61;1698234;84;21588;-68
2021/01/21 11:08:39;;;;;;;17.45;11.50;;;;;;;7.30;62.87;97886.57;1697923;83;21584;-69
2021/01/21 11:11:07;;;;;;;23.60;13.78;;;;;;;7.65;61.98;97882.40;1692929;84;21188;-67
2021/01/21 11:13:35;;;;;;;22.75;13.48;;;;;;;8.21;60.02;97870.39;1697775;83;21139;-67
2021/01/21 11:16:06;;;;;;;19.05;12.50;;;;;;;8.13;59.69;97858.11;1693440;84;21489;-67
2021/01/21 11:18:35;;;;;;;21.55;12.13;;;;;;;8.44;59.23;97855.05;1697531;84;21581;-67
2021/01/21 11:21:04;;;;;;;19.92;12.65;;;;;;;9.43;59.02;97858.73;1693193;84;21163;-66
2021/01/21 11:23:32;;;;;;;21.77;11.73;;;;;;;9.42;55.65;97857.09;1689552;84;21176;-66
2021/01/21 11:26:00;;;;;;;22.02;12.03;;;;;;;10.52;55.51;97860.28;1712796;83;21626;-66
2021/01/21 11:28:29;;;;;;;20.82;12.65;;;;;;;10.80;52.18;97850.22;1713063;83;21147;-68
2021/01/21 11:30:58;;;;;;;23.75;13.90;;;;;;;11.00;51.33;97844.41;1712965;83;21221;-69
2021/01/21 11:33:26;;;;;;;61.13;27.25;;;;;;;10.51;53.30;97848.25;1712756;83;21722;-67
2021/01/21 11:35:56;;;;;;;34.38;19.15;;;;;;;10.71;52.37;97839.39;1713102;83;21599;-68
2021/01/21 11:38:24;;;;;;;21.70;12.50;;;;;;;11.46;50.84;97830.81;1667328;85;21212;-69
2021/01/21 11:40:52;;;;;;;23.62;11.83;;;;;;;11.26;50.75;97829.69;1696854;84;21468;-69
2021/01/21 11:43:20;;;;;;;24.63;13.62;;;;;;;11.85;49.07;97819.91;1713137;84;21178;-68
2021/01/21 11:45:48;;;;;;;21.57;11.43;;;;;;;11.17;50.12;97812.38;1713191;84;21192;-69
2021/01/21 11:48:18;;;;;;;19.40;11.50;;;;;;;11.12;50.87;97817.23;1713259;83;21678;-68
2021/01/21 11:50:46;;;;;;;23.47;13.13;;;;;;;11.02;49.67;97809.16;1712875;84;21674;-68
2021/01/21 11:53:15;;;;;;;20.90;12.82;;;;;;;11.69;49.02;97802.04;1713060;83;21245;-68
2021/01/21 11:55:43;;;;;;;21.97;11.97;;;;;;;11.16;50.15;97806.05;1713021;83;21201;-68
2021/01/21 11:58:11;;;;;;;20.77;11.43;;;;;;;11.08;50.35;97802.91;1720359;82;21178;-69
2021/01/21 12:00:40;;;;;;;20.75;11.90;;;;;;;10.21;52.49;97801.35;1723831;82;21169;-69
2021/01/21 12:03:08;;;;;;;21.10;12.45;;;;;;;10.28;53.54;97799.81;1723984;83;21167;-68
2021/01/21 12:05:39;;;;;;;26.80;13.55;;;;;;;10.40;51.90;97797.83;1724111;82;21173;-70
2021/01/21 12:08:07;;;;;;;15.53;9.93;;;;;;;10.13;52.22;97797.80;1724078;82;21213;-69